Time;durP1;ratioP1;P1;durP2;ratioP2;P2;SDS_P1;SDS_P2;PMS_P1;PMS_P2;Temp;Humidity;BMP_temperature;BMP_pressure;BME280_temperature;BME280_humidity;BME280_pressure;Samples;Min_cycle;Max_cycle;Signal;HPM_P1;HPM_P2
2021/08/10 00:01:41;;;;;;;0.07;0.07;;;23.20;71.50;;;;;;5060485;28;20220;-67
2021/08/10 00:04:08;;;;;;;0.00;0.00;;;23.20;71.80;;;;;;5062699;28;20667;-67
2021/08/10 00:06:35;;;;;;;0.00;0.00;;;23.20;71.80;;;;;;5064205;28;20209;-67
2021/08/10 00:09:03;;;;;;;0.10;0.10;;;23.10;71.90;;;;;;5060934;28;20539;-67
2021/08/10 00:11:30;;;;;;;0.10;0.10;;;23.10;72.20;;;;;;5060227;28;20211;-67
2021/08/10 00:13:57;;;;;;;0.00;0.00;;;23.10;72.40;;;;;;5061259;28;20280;-67
2021/08/10 00:16:24;;;;;;;0.50;0.50;;;23.00;72.30;;;;;;5070563;28;20757;-67
2021/08/10 00:18:51;;;;;;;0.00;0.00;;;23.00;72.30;;;;;;5060209;28;20305;-67
2021/08/10 00:21:18;;;;;;;0.40;0.40;;;23.00;72.30;;;;;;5061510;28;20283;-67
2021/08/10 00:23:44;;;;;;;0.00;0.00;;;23.00;72.20;;;;;;5062476;28;20221;-67
2021/08/10 00:26:13;;;;;;;0.00;0.00;;;23.00;72.00;;;;;;5063126;28;20640;-67
2021/08/10 00:28:40;;;;;;;0.10;0.10;;;23.00;72.00;;;;;;5063283;28;20238;-67
2021/08/10 00:31:07;;;;;;;0.00;0.00;;;23.00;72.20;;;;;;5063352;28;20687;-67
2021/08/10 00:33:34;;;;;;;0.00;0.00;;;22.90;72.40;;;;;;5066073;28;20215;-67
2021/08/10 00:36:01;;;;;;;0.00;0.00;;;22.90;72.60;;;;;;5065881;28;20604;-67
2021/08/10 00:38:28;;;;;;;0.90;0.90;;;22.80;72.80;;;;;;5067363;28;20271;-67
2021/08/10 00:40:56;;;;;;;0.60;0.60;;;22.70;72.90;;;;;;5064213;28;20221;-67
2021/08/10 00:43:35;;;;;;;0.40;0.40;;;22.70;73.20;;;;;;5065784;28;20215;-67
2021/08/10 00:46:06;;;;;;;0.33;0.33;;;22.70;73.20;;;;;;5064576;28;20217;-67
2021/08/10 00:48:33;;;;;;;0.50;0.50;;;22.70;73.40;;;;;;5063471;28;20321;-67
2021/08/10 00:51:00;;;;;;;0.00;0.00;;;22.70;73.40;;;;;;5065494;28;20701;-67
2021/08/10 00:53:27;;;;;;;0.10;0.10;;;22.80;73.40;;;;;;5065304;28;20214;-67
2021/08/10 00:55:55;;;;;;;0.50;0.50;;;22.80;73.30;;;;;;5066638;28;20218;-67
2021/08/10 00:58:22;;;;;;;0.10;0.10;;;22.80;73.20;;;;;;5063815;28;20222;-67
2021/08/10 01:00:49;;;;;;;0.00;0.00;;;22.70;73.00;;;;;;5063922;28;20202;-67
2021/08/10 01:03:16;;;;;;;1.57;1.47;;;22.70;73.10;;;;;;5065681;28;20217;-67
2021/08/10 01:05:46;;;;;;;0.10;0.10;;;22.60;73.20;;;;;;5066042;28;20209;-67
2021/08/10 01:08:29;;;;;;;0.10;0.10;;;22.50;73.50;;;;;;5063253;28;20218;-67
2021/08/10 01:11:18;;;;;;;0.47;0.47;;;22.50;73.80;;;;;;5065681;28;20488;-67
2021/08/10 01:13:52;;;;;;;0.00;0.00;;;22.40;74.10;;;;;;5062779;28;20221;-67
2021/08/10 01:16:33;;;;;;;0.00;0.00;;;22.40;74.20;;;;;;5069572;28;20216;-67
2021/08/10 01:19:37;;;;;;;0.00;0.00;;;22.30;74.30;;;;;;5065711;28;20213;-67
2021/08/10 01:22:06;;;;;;;0.10;0.10;;;22.30;74.30;;;;;;5065511;28;20213;-67
2021/08/10 01:24:40;;;;;;;0.20;0.20;;;22.30;75.00;;;;;;5065277;28;20267;-67
2021/08/10 01:27:25;;;;;;;0.70;0.70;;;22.20;76.00;;;;;;5072531;28;20267;-67
2021/08/10 01:30:12;;;;;;;0.10;0.10;;;22.10;75.60;;;;;;5065063;28;20272;-67
2021/08/10 01:32:42;;;;;;;0.30;0.30;;;21.90;75.50;;;;;;5066613;28;20659;-67
2021/08/10 01:35:11;;;;;;;0.00;0.00;;;21.90;75.60;;;;;;5063745;28;20855;-67
2021/08/10 01:37:40;;;;;;;0.00;0.00;;;21.90;75.70;;;;;;5065037;28;20684;-67
2021/08/10 01:40:10;;;;;;;0.43;0.43;;;21.90;75.70;;;;;;5063216;28;20222;-67
2021/08/10 01:42:39;;;;;;;0.00;0.00;;;21.90;75.70;;;;;;5067836;28;20279;-67
2021/08/10 01:45:08;;;;;;;0.17;0.17;;;21.90;76.10;;;;;;5065231;28;20217;-67
2021/08/10 01:47:37;;;;;;;0.10;0.10;;;21.90;76.40;;;;;;5072084;28;20279;-67
2021/08/10 01:50:07;;;;;;;0.10;0.10;;;21.90;76.40;;;;;;5066374;28;20671;-67
2021/08/10 01:52:35;;;;;;;1.17;1.07;;;21.90;76.70;;;;;;5063630;28;20214;-67
2021/08/10 01:55:03;;;;;;;0.00;0.00;;;21.90;76.70;;;;;;5062427;28;20629;-67
2021/08/10 01:57:31;;;;;;;0.20;0.20;;;21.80;76.70;;;;;;5062456;28;20214;-67
2021/08/10 01:59:59;;;;;;;0.10;0.10;;;21.90;76.90;;;;;;5063143;28;20218;-67
2021/08/10 02:02:26;;;;;;;0.00;0.00;;;21.90;76.90;;;;;;5064620;28;20209;-67
2021/08/10 02:04:53;;;;;;;0.10;0.10;;;21.90;76.80;;;;;;5062987;28;20210;-67
2021/08/10 02:07:22;;;;;;;0.00;0.00;;;21.90;76.80;;;;;;5066307;28;20218;-67
2021/08/10 02:09:50;;;;;;;0.00;0.00;;;22.00;76.80;;;;;;5066997;28;20244;-67
2021/08/10 02:12:18;;;;;;;0.07;0.07;;;22.00;76.80;;;;;;5064730;28;20210;-67
2021/08/10 02:14:45;;;;;;;2.30;1.93;;;22.00;76.80;;;;;;5062151;28;20214;-67
2021/08/10 02:17:15;;;;;;;0.10;0.10;;;22.00;76.70;;;;;;5065481;28;20215;-67
2021/08/10 02:19:43;;;;;;;0.00;0.00;;;22.10;76.70;;;;;;5063040;28;20295;-67
2021/08/10 02:22:13;;;;;;;0.10;0.10;;;22.10;76.60;;;;;;5072217;28;20717;-67
2021/08/10 02:25:01;;;;;;;0.13;0.13;;;22.10;76.60;;;;;;5062686;28;20218;-67
2021/08/10 02:27:40;;;;;;;0.00;0.00;;;22.10;76.80;;;;;;5063226;28;20222;-67
2021/08/10 02:30:10;;;;;;;0.00;0.00;;;22.10;76.80;;;;;;5061779;28;20249;-67
2021/08/10 02:32:39;;;;;;;0.00;0.00;;;22.10;76.70;;;;;;5060812;28;20659;-67
2021/08/10 02:35:07;;;;;;;0.00;0.00;;;22.10;76.80;;;;;;5064256;28;20226;-67
2021/08/10 02:37:36;;;;;;;0.00;0.00;;;22.00;76.80;;;;;;5064685;28;20206;-67
2021/08/10 02:40:07;;;;;;;0.00;0.00;;;21.90;76.90;;;;;;5061320;28;20227;-67
2021/08/10 02:42:36;;;;;;;0.30;0.30;;;21.90;77.00;;;;;;5062997;28;20267;-67
2021/08/10 02:45:05;;;;;;;0.00;0.00;;;21.90;77.00;;;;;;5063861;28;20232;-67
2021/08/10 02:47:32;;;;;;;0.03;0.03;;;21.90;76.90;;;;;;5061313;28;20595;-67
2021/08/10 02:49:59;;;;;;;0.00;0.00;;;21.90;76.90;;;;;;5067864;28;20710;-67
2021/08/10 02:52:26;;;;;;;0.10;0.10;;;21.90;77.00;;;;;;5061988;28;20218;-67
2021/08/10 02:54:53;;;;;;;1.33;1.23;;;21.90;77.00;;;;;;5064567;28;20221;-67
2021/08/10 02:57:30;;;;;;;0.10;0.10;;;22.00;77.00;;;;;;5064634;28;20216;-67
2021/08/10 03:00:11;;;;;;;0.00;0.00;;;21.90;76.80;;;;;;5077221;28;21708;-67
2021/08/10 03:02:43;;;;;;;0.00;0.00;;;21.90;76.50;;;;;;5063506;28;20221;-67
2021/08/10 03:05:15;;;;;;;0.00;0.00;;;21.90;76.40;;;;;;5063169;28;20293;-67
2021/08/10 03:07:49;;;;;;;0.10;0.10;;;21.80;76.40;;;;;;5064246;28;20296;-67
2021/08/10 03:10:17;;;;;;;0.10;0.10;;;21.80;76.40;;;;;;5060954;28;20230;-67
2021/08/10 03:12:49;;;;;;;0.10;0.10;;;21.80;76.50;;;;;;5063341;28;20228;-67
2021/08/10 03:15:25;;;;;;;0.00;0.00;;;21.80;76.50;;;;;;5062885;28;20214;-67
2021/08/10 03:17:55;;;;;;;0.30;0.30;;;21.80;76.30;;;;;;5061358;28;20224;-67
2021/08/10 03:20:23;;;;;;;0.30;0.30;;;21.70;76.30;;;;;;5059795;28;20709;-67
2021/08/10 03:22:52;;;;;;;0.10;0.10;;;21.70;76.30;;;;;;5064535;28;20271;-67
2021/08/10 03:25:22;;;;;;;0.07;0.07;;;21.60;76.30;;;;;;5060442;28;20654;-67
2021/08/10 03:27:51;;;;;;;0.10;0.10;;;21.60;76.40;;;;;;5060170;28;20226;-67
2021/08/10 03:30:18;;;;;;;0.10;0.10;;;21.60;76.50;;;;;;5061567;28;20257;-67
2021/08/10 03:32:49;;;;;;;0.10;0.10;;;21.60;76.60;;;;;;5063209;28;20220;-67
2021/08/10 03:35:17;;;;;;;0.10;0.10;;;21.70;76.80;;;;;;5064749;28;20216;-67
2021/08/10 03:37:45;;;;;;;0.10;0.10;;;21.70;77.00;;;;;;5064280;28;20263;-67
2021/08/10 03:40:13;;;;;;;0.20;0.20;;;21.70;77.00;;;;;;5060354;28;20218;-67
2021/08/10 03:42:41;;;;;;;0.10;0.10;;;21.70;77.10;;;;;;5063077;28;20283;-67
2021/08/10 03:45:08;;;;;;;0.07;0.07;;;21.60;77.20;;;;;;5062797;28;20255;-67
2021/08/10 03:47:38;;;;;;;0.10;0.10;;;21.60;77.40;;;;;;5063481;28;20247;-67
2021/08/10 03:50:06;;;;;;;0.10;0.10;;;21.60;78.20;;;;;;5062006;28;20315;-67
2021/08/10 03:52:33;;;;;;;0.10;0.10;;;21.70;77.50;;;;;;5060340;28;20214;-67
2021/08/10 03:55:01;;;;;;;0.00;0.00;;;21.70;77.50;;;;;;5062219;28;20213;-67
2021/08/10 03:57:31;;;;;;;0.03;0.03;;;21.70;77.50;;;;;;5063018;28;20714;-67
2021/08/10 03:59:59;;;;;;;0.00;0.00;;;21.70;77.60;;;;;;5069607;28;20225;-67
2021/08/10 04:02:27;;;;;;;0.03;0.03;;;21.70;77.70;;;;;;5061740;28;20225;-67
2021/08/10 04:04:55;;;;;;;0.10;0.10;;;21.70;77.60;;;;;;5065378;28;20250;-67
2021/08/10 04:07:24;;;;;;;0.30;0.30;;;21.80;77.60;;;;;;5068323;28;20614;-67
2021/08/10 04:09:52;;;;;;;0.10;0.10;;;21.80;77.50;;;;;;5065056;28;20241;-67
2021/08/10 04:12:20;;;;;;;0.10;0.10;;;21.80;77.40;;;;;;5067511;28;20284;-67
2021/08/10 04:14:47;;;;;;;0.10;0.10;;;21.80;77.30;;;;;;5067187;28;20201;-67
2021/08/10 04:17:16;;;;;;;0.10;0.10;;;21.80;77.20;;;;;;5064390;28;20214;-67
2021/08/10 04:19:45;;;;;;;0.10;0.10;;;21.90;77.20;;;;;;5066988;28;20635;-67
2021/08/10 04:22:17;;;;;;;0.10;0.10;;;21.90;76.90;;;;;;5063144;28;20214;-67
2021/08/10 04:24:47;;;;;;;0.07;0.07;;;21.90;76.70;;;;;;5066860;28;20214;-67
2021/08/10 04:27:16;;;;;;;0.00;0.00;;;21.90;76.40;;;;;;5065507;28;20272;-67
2021/08/10 04:29:43;;;;;;;0.10;0.10;;;22.00;76.10;;;;;;5063429;28;20314;-67
2021/08/10 04:32:10;;;;;;;0.20;0.20;;;22.10;75.90;;;;;;5065673;28;20605;-67
2021/08/10 04:34:39;;;;;;;0.00;0.00;;;22.10;75.50;;;;;;5065622;28;20654;-67
2021/08/10 04:37:06;;;;;;;0.10;0.10;;;22.20;75.30;;;;;;5072797;28;20267;-67
2021/08/10 04:39:33;;;;;;;1.60;0.47;;;22.20;75.10;;;;;;5064316;28;20694;-67
2021/08/10 04:42:00;;;;;;;0.10;0.10;;;22.30;74.80;;;;;;5064082;28;20639;-67
2021/08/10 04:44:29;;;;;;;0.10;0.10;;;22.30;74.40;;;;;;5068984;28;20301;-67
2021/08/10 04:46:56;;;;;;;0.17;0.17;;;22.40;74.10;;;;;;5064784;28;20279;-67
2021/08/10 04:49:23;;;;;;;0.10;0.10;;;22.40;73.90;;;;;;5065903;28;20221;-67
2021/08/10 04:51:50;;;;;;;0.83;0.83;;;22.40;73.60;;;;;;5066202;28;20247;-67
2021/08/10 04:54:17;;;;;;;0.00;0.00;;;22.50;73.50;;;;;;5064685;28;20215;-67
2021/08/10 04:56:44;;;;;;;0.00;0.00;;;22.60;73.40;;;;;;5064730;28;20210;-67
2021/08/10 04:59:11;;;;;;;0.10;0.10;;;22.60;73.30;;;;;;5063318;28;20276;-67
2021/08/10 05:01:39;;;;;;;0.00;0.00;;;22.70;73.30;;;;;;5064832;28;20643;-67
2021/08/10 05:04:07;;;;;;;0.10;0.10;;;22.70;73.20;;;;;;5066181;28;20217;-67
2021/08/10 05:06:37;;;;;;;0.00;0.00;;;22.70;73.00;;;;;;5065893;28;20225;-67
2021/08/10 05:09:06;;;;;;;0.10;0.10;;;22.80;72.70;;;;;;5063339;28;20580;-67
2021/08/10 05:11:34;;;;;;;0.10;0.10;;;22.80;72.60;;;;;;5062185;28;20262;-67
2021/08/10 05:14:01;;;;;;;2.57;0.83;;;22.80;72.50;;;;;;5066618;28;20554;-67
2021/08/10 05:16:28;;;;;;;0.00;0.00;;;22.80;72.50;;;;;;5070414;28;20217;-67
2021/08/10 05:18:56;;;;;;;0.00;0.00;;;22.90;72.50;;;;;;5063092;28;20624;-67
2021/08/10 05:21:22;;;;;;;0.10;0.10;;;23.00;72.50;;;;;;5064026;28;20221;-67
2021/08/10 05:23:50;;;;;;;0.00;0.00;;;23.10;72.30;;;;;;5067385;28;20229;-67
2021/08/10 05:26:17;;;;;;;0.00;0.00;;;23.30;72.10;;;;;;5063472;28;20214;-67
2021/08/10 05:28:45;;;;;;;0.00;0.00;;;23.50;71.70;;;;;;5063782;28;20222;-67
2021/08/10 05:31:13;;;;;;;0.10;0.10;;;23.70;71.10;;;;;;5065071;28;20249;-67
2021/08/10 05:33:40;;;;;;;0.00;0.00;;;23.90;70.30;;;;;;5061504;28;20214;-67
2021/08/10 05:36:07;;;;;;;0.10;0.10;;;24.00;69.20;;;;;;5067927;28;20251;-67
2021/08/10 05:38:34;;;;;;;0.00;0.00;;;24.10;68.60;;;;;;5065826;28;20229;-67
2021/08/10 05:41:01;;;;;;;0.37;0.37;;;24.30;67.80;;;;;;5063492;28;20215;-67
2021/08/10 05:43:28;;;;;;;0.00;0.00;;;24.40;66.70;;;;;;5063016;28;20573;-67
2021/08/10 05:45:55;;;;;;;0.10;0.10;;;24.50;66.40;;;;;;5067325;28;20240;-67
2021/08/10 05:48:23;;;;;;;0.27;0.27;;;24.50;65.80;;;;;;5063649;28;20221;-67
2021/08/10 05:50:50;;;;;;;0.10;0.10;;;24.60;64.90;;;;;;5061616;28;20248;-67
2021/08/10 05:53:17;;;;;;;0.10;0.10;;;24.80;63.40;;;;;;5064874;28;20274;-67
2021/08/10 05:55:44;;;;;;;0.00;0.00;;;24.90;62.50;;;;;;5063420;28;20241;-67
2021/08/10 05:58:11;;;;;;;0.17;0.17;;;25.00;62.20;;;;;;5064929;28;20214;-67
2021/08/10 06:00:38;;;;;;;0.10;0.10;;;25.20;61.10;;;;;;5062087;28;20240;-67
2021/08/10 06:03:05;;;;;;;0.00;0.00;;;25.30;60.50;;;;;;5063502;28;20238;-67
2021/08/10 06:05:33;;;;;;;0.10;0.10;;;25.50;59.60;;;;;;5064374;28;20218;-67
2021/08/10 06:08:00;;;;;;;0.07;0.07;;;25.60;57.60;;;;;;5062666;28;20542;-67
2021/08/10 06:10:28;;;;;;;0.13;0.13;;;25.80;57.40;;;;;;5063092;28;20241;-67
2021/08/10 06:12:55;;;;;;;0.10;0.10;;;25.80;57.20;;;;;;5072173;28;20206;-67
2021/08/10 06:15:21;;;;;;;0.83;0.83;;;25.80;56.70;;;;;;5062829;28;20213;-67
2021/08/10 06:17:49;;;;;;;0.60;0.40;;;25.80;55.70;;;;;;5063233;28;20214;-67
2021/08/10 06:20:16;;;;;;;0.10;0.10;;;25.90;55.30;;;;;;5064412;28;20224;-67
2021/08/10 06:22:43;;;;;;;0.10;0.10;;;26.10;55.30;;;;;;5064567;28;20216;-67
2021/08/10 06:25:10;;;;;;;0.50;0.50;;;26.30;54.40;;;;;;5062300;28;20826;-67
2021/08/10 06:27:37;;;;;;;0.23;0.23;;;26.50;53.40;;;;;;5063830;28;20221;-67
2021/08/10 06:30:07;;;;;;;0.10;0.10;;;26.60;52.80;;;;;;5061713;28;20250;-67
2021/08/10 06:32:34;;;;;;;0.33;0.13;;;26.70;52.70;;;;;;5062023;28;20279;-67
2021/08/10 06:35:01;;;;;;;0.00;0.00;;;26.70;52.30;;;;;;5064064;28;20219;-67
2021/08/10 06:37:28;;;;;;;0.70;0.70;;;26.80;52.10;;;;;;5063773;28;20252;-67
2021/08/10 06:39:55;;;;;;;0.07;0.07;;;26.80;51.30;;;;;;5061642;28;20206;-67
2021/08/10 06:42:22;;;;;;;0.10;0.10;;;26.90;51.20;;;;;;5063627;28;20609;-67
2021/08/10 06:44:49;;;;;;;0.00;0.00;;;26.90;50.60;;;;;;5065469;28;20205;-67
2021/08/10 06:47:17;;;;;;;0.10;0.10;;;26.90;51.00;;;;;;5061540;28;20218;-67
2021/08/10 06:49:44;;;;;;;0.10;0.10;;;27.00;50.90;;;;;;5063597;28;20655;-67
2021/08/10 06:52:11;;;;;;;0.00;0.00;;;27.20;51.50;;;;;;5070352;28;20206;-67
2021/08/10 06:54:38;;;;;;;0.00;0.00;;;27.40;50.30;;;;;;5061055;28;20708;-67
2021/08/10 06:57:06;;;;;;;0.03;0.03;;;27.50;50.00;;;;;;5067155;28;20263;-67
2021/08/10 06:59:37;;;;;;;0.10;0.10;;;27.60;50.00;;;;;;5065463;28;20285;-67
2021/08/10 07:02:05;;;;;;;0.00;0.00;;;27.70;50.40;;;;;;5060628;28;20272;-68
2021/08/10 07:04:35;;;;;;;0.00;0.00;;;27.90;49.90;;;;;;5062409;28;20226;-67
2021/08/10 07:07:06;;;;;;;0.67;0.67;;;28.10;50.10;;;;;;5063444;28;20217;-67
2021/08/10 07:09:33;;;;;;;0.03;0.03;;;28.20;50.00;;;;;;5064687;28;20214;-67
2021/08/10 07:12:00;;;;;;;0.00;0.00;;;28.20;50.10;;;;;;5061269;28;20671;-67
2021/08/10 07:14:27;;;;;;;0.00;0.00;;;28.20;50.10;;;;;;5063520;28;20221;-67
2021/08/10 07:16:54;;;;;;;0.10;0.10;;;28.10;50.10;;;;;;5063703;28;20213;-67
2021/08/10 07:19:21;;;;;;;0.57;0.57;;;28.10;50.50;;;;;;5062669;28;20700;-67
2021/08/10 07:21:48;;;;;;;0.37;0.37;;;28.20;50.00;;;;;;5060419;28;20655;-67
2021/08/10 07:24:15;;;;;;;0.00;0.00;;;28.30;50.20;;;;;;5065902;28;20218;-67
2021/08/10 07:26:43;;;;;;;0.10;0.10;;;28.30;50.40;;;;;;5063064;28;20229;-67
2021/08/10 07:29:10;;;;;;;0.10;0.10;;;28.60;49.90;;;;;;5063226;28;20218;-67
2021/08/10 07:31:37;;;;;;;0.30;0.30;;;28.90;49.30;;;;;;5060474;28;20315;-67
2021/08/10 07:34:04;;;;;;;0.10;0.10;;;29.10;48.90;;;;;;5063554;28;20297;-67
2021/08/10 07:36:31;;;;;;;0.10;0.10;;;29.40;49.00;;;;;;5063774;28;20220;-67
2021/08/10 07:38:58;;;;;;;0.00;0.00;;;29.50;48.10;;;;;;5062965;28;20271;-67
2021/08/10 07:41:25;;;;;;;0.10;0.10;;;29.50;48.40;;;;;;5064409;28;20206;-67
2021/08/10 07:43:52;;;;;;;0.00;0.00;;;29.70;48.30;;;;;;5061721;28;20262;-67
2021/08/10 07:46:19;;;;;;;0.10;0.10;;;29.90;48.10;;;;;;5060799;28;20263;-67
2021/08/10 07:48:46;;;;;;;0.00;0.00;;;30.00;48.20;;;;;;5060575;28;20237;-67
2021/08/10 07:51:13;;;;;;;0.10;0.10;;;30.10;48.10;;;;;;5059369;28;20241;-67
2021/08/10 07:53:40;;;;;;;0.00;0.00;;;30.20;48.60;;;;;;5067830;28;20630;-67
2021/08/10 07:56:07;;;;;;;0.10;0.10;;;30.20;48.40;;;;;;5070801;28;20620;-67
2021/08/10 07:58:34;;;;;;;0.10;0.10;;;30.20;48.60;;;;;;5060804;28;20211;-66
2021/08/10 08:01:01;;;;;;;0.00;0.00;;;30.10;48.60;;;;;;5061620;28;20669;-66
2021/08/10 08:03:29;;;;;;;2.73;2.10;;;30.00;48.40;;;;;;5066109;28;20677;-66
2021/08/10 08:05:56;;;;;;;0.47;0.47;;;29.80;48.80;;;;;;5060912;28;20305;-67
2021/08/10 08:08:25;;;;;;;0.30;0.30;;;29.80;49.20;;;;;;5061317;28;20210;-67
2021/08/10 08:10:52;;;;;;;0.07;0.07;;;29.70;49.70;;;;;;5064725;28;20237;-66
2021/08/10 08:13:24;;;;;;;0.13;0.13;;;29.80;49.80;;;;;;5061392;28;20222;-66
2021/08/10 08:15:53;;;;;;;0.00;0.00;;;29.80;49.80;;;;;;5059372;28;20214;-67
2021/08/10 08:18:20;;;;;;;0.10;0.10;;;29.70;49.30;;;;;;5060393;28;20648;-66
2021/08/10 08:20:48;;;;;;;0.10;0.10;;;29.70;49.70;;;;;;5062808;28;20287;-67
2021/08/10 08:23:19;;;;;;;0.20;0.20;;;29.90;49.80;;;;;;5063070;28;20210;-67
2021/08/10 08:25:46;;;;;;;0.40;0.40;;;30.20;49.30;;;;;;5061899;28;20228;-67
2021/08/10 08:28:14;;;;;;;0.03;0.03;;;30.60;48.90;;;;;;5062611;28;20248;-67
2021/08/10 08:30:41;;;;;;;0.00;0.00;;;31.00;48.40;;;;;;5062599;28;20241;-66
2021/08/10 08:33:10;;;;;;;0.00;0.00;;;31.20;47.80;;;;;;5060207;28;20215;-66
2021/08/10 08:35:39;;;;;;;0.00;0.00;;;31.50;47.40;;;;;;5060162;28;20672;-67
2021/08/10 08:38:07;;;;;;;0.00;0.00;;;31.70;46.90;;;;;;5062266;28;20217;-67
2021/08/10 08:40:37;;;;;;;0.00;0.00;;;31.80;47.10;;;;;;5062338;28;20651;-67
2021/08/10 08:43:05;;;;;;;0.00;0.00;;;31.60;46.90;;;;;;5062683;28;20216;-67
2021/08/10 08:45:33;;;;;;;0.00;0.00;;;31.20;47.80;;;;;;5061548;28;20275;-67
2021/08/10 08:48:04;;;;;;;0.00;0.00;;;30.90;48.60;;;;;;5059860;28;20214;-67
2021/08/10 08:50:32;;;;;;;0.00;0.00;;;30.70;49.40;;;;;;5064327;28;20218;-67
2021/08/10 08:53:03;;;;;;;0.20;0.20;;;30.40;50.70;;;;;;5065613;28;20217;-67
2021/08/10 08:55:30;;;;;;;0.00;0.00;;;30.30;50.90;;;;;;5063623;28;20215;-67
2021/08/10 08:57:59;;;;;;;0.03;0.03;;;30.30;51.20;;;;;;5066957;28;20214;-66
2021/08/10 09:00:26;;;;;;;0.00;0.00;;;30.60;50.50;;;;;;5063301;28;20553;-67
2021/08/10 09:02:53;;;;;;;0.00;0.00;;;31.10;49.90;;;;;;5065122;28;20263;-67
2021/08/10 09:05:21;;;;;;;1.37;0.67;;;31.40;49.30;;;;;;5065398;28;20292;-67
2021/08/10 09:07:48;;;;;;;0.10;0.10;;;31.70;49.20;;;;;;5063191;28;20210;-66
2021/08/10 09:10:18;;;;;;;0.20;0.20;;;31.90;49.10;;;;;;5067811;28;20267;-67
2021/08/10 09:12:54;;;;;;;0.30;0.30;;;32.10;48.10;;;;;;5066026;28;20225;-67
2021/08/10 09:15:31;;;;;;;0.00;0.00;;;32.10;48.00;;;;;;5064602;28;20281;-67
2021/08/10 09:18:11;;;;;;;0.17;0.17;;;32.10;48.20;;;;;;5063436;28;20560;-67
2021/08/10 09:20:39;;;;;;;0.10;0.10;;;32.10;48.30;;;;;;5066289;28;20209;-67
2021/08/10 09:23:06;;;;;;;0.00;0.00;;;31.90;48.50;;;;;;5065857;28;20217;-67
2021/08/10 09:25:34;;;;;;;0.00;0.00;;;32.00;48.60;;;;;;5065011;28;20256;-67
2021/08/10 09:28:09;;;;;;;0.00;0.00;;;32.30;48.30;;;;;;5062014;28;20635;-67
2021/08/10 09:30:36;;;;;;;1.27;0.30;;;32.50;48.00;;;;;;5063037;28;20233;-66
2021/08/10 09:33:07;;;;;;;0.00;0.00;;;32.80;47.40;;;;;;5066254;28;20627;-67
2021/08/10 09:35:37;;;;;;;0.00;0.00;;;33.00;47.10;;;;;;5068526;28;20198;-67
2021/08/10 09:38:06;;;;;;;0.20;0.20;;;33.00;47.00;;;;;;5062486;28;20302;-67
2021/08/10 09:40:38;;;;;;;0.00;0.00;;;32.80;46.50;;;;;;5066557;28;20221;-66
2021/08/10 09:43:18;;;;;;;0.00;0.00;;;32.70;47.00;;;;;;5062387;28;20671;-67
2021/08/10 09:45:45;;;;;;;0.00;0.00;;;32.90;46.50;;;;;;5069519;28;20206;-68
2021/08/10 09:48:14;;;;;;;0.10;0.10;;;32.80;46.50;;;;;;5065515;28;20274;-67
2021/08/10 09:50:41;;;;;;;0.30;0.30;;;33.00;46.50;;;;;;5070123;28;20638;-67
2021/08/10 09:53:15;;;;;;;0.07;0.07;;;33.30;45.90;;;;;;5063997;28;20647;-67
2021/08/10 09:55:56;;;;;;;0.00;0.00;;;33.50;45.20;;;;;;5063512;28;20210;-67
2021/08/10 09:58:23;;;;;;;0.00;0.00;;;33.50;45.20;;;;;;5064830;28;20205;-67
2021/08/10 10:00:51;;;;;;;0.10;0.10;;;33.70;45.10;;;;;;5063181;28;20222;-67
2021/08/10 10:03:22;;;;;;;0.10;0.10;;;33.80;44.60;;;;;;5062289;28;20214;-67
2021/08/10 10:05:50;;;;;;;0.00;0.00;;;33.80;43.50;;;;;;5065932;28;20301;-67
2021/08/10 10:08:25;;;;;;;0.00;0.00;;;33.50;43.20;;;;;;5065100;28;20676;-67
2021/08/10 10:10:54;;;;;;;0.00;0.00;;;33.40;44.00;;;;;;5066990;28;20613;-67
2021/08/10 10:13:22;;;;;;;0.00;0.00;;;33.30;44.20;;;;;;5061871;28;20218;-67
2021/08/10 10:15:50;;;;;;;0.00;0.00;;;33.40;44.40;;;;;;5063987;28;20228;-67
2021/08/10 10:18:19;;;;;;;0.00;0.00;;;33.60;44.10;;;;;;5068671;28;20293;-67
2021/08/10 10:20:48;;;;;;;4.60;2.77;;;33.80;44.00;;;;;;5067492;28;20213;-67
2021/08/10 10:23:27;;;;;;;0.00;0.00;;;34.00;44.20;;;;;;5064368;28;20209;-66
2021/08/10 10:25:55;;;;;;;0.10;0.10;;;34.40;44.10;;;;;;5062057;28;20662;-67
2021/08/10 10:28:22;;;;;;;0.10;0.10;;;34.70;44.00;;;;;;5062230;28;20577;-67
2021/08/10 10:30:50;;;;;;;0.10;0.10;;;34.90;42.90;;;;;;5064110;28;20249;-67
2021/08/10 10:33:17;;;;;;;0.00;0.00;;;35.00;42.60;;;;;;5062240;28;20219;-67
2021/08/10 10:35:45;;;;;;;0.00;0.00;;;35.00;42.40;;;;;;5061781;28;20214;-67
2021/08/10 10:38:14;;;;;;;0.10;0.10;;;34.80;41.80;;;;;;5070885;28;20213;-67
2021/08/10 10:40:41;;;;;;;0.00;0.00;;;34.60;42.30;;;;;;5064503;28;20214;-67
2021/08/10 10:43:11;;;;;;;0.10;0.10;;;34.50;42.90;;;;;;5061208;28;20656;-67
2021/08/10 10:45:40;;;;;;;0.00;0.00;;;34.50;42.50;;;;;;5063462;28;20225;-67
2021/08/10 10:48:26;;;;;;;0.20;0.20;;;34.70;42.80;;;;;;5060102;28;20225;-67
2021/08/10 10:51:09;;;;;;;0.07;0.07;;;34.80;42.40;;;;;;5063629;28;20222;-67
2021/08/10 10:53:36;;;;;;;0.10;0.10;;;35.00;42.40;;;;;;5062968;28;20209;-67
2021/08/10 10:56:04;;;;;;;0.10;0.10;;;35.10;42.70;;;;;;5060686;28;20214;-67
2021/08/10 10:58:33;;;;;;;0.10;0.10;;;35.00;41.50;;;;;;5065773;28;20206;-67
2021/08/10 11:01:14;;;;;;;0.70;0.70;;;34.90;42.10;;;;;;5063450;28;20241;-67
2021/08/10 11:04:04;;;;;;;0.10;0.10;;;35.00;41.80;;;;;;5063094;28;20221;-67
2021/08/10 11:06:48;;;;;;;0.10;0.10;;;34.80;41.80;;;;;;5063427;28;20347;-67
2021/08/10 11:09:36;;;;;;;0.03;0.03;;;34.50;42.40;;;;;;5078889;28;20225;-67
2021/08/10 11:12:42;;;;;;;0.20;0.20;;;34.60;42.90;;;;;;5063066;28;20225;-67
2021/08/10 11:15:19;;;;;;;0.00;0.00;;;34.80;42.60;;;;;;5062292;28;20542;-67
2021/08/10 11:18:08;;;;;;;0.10;0.10;;;35.00;42.10;;;;;;5061397;28;20222;-67
2021/08/10 11:20:39;;;;;;;0.00;0.00;;;35.10;41.90;;;;;;5063003;28;20214;-67
2021/08/10 11:23:22;;;;;;;0.10;0.10;;;35.20;42.00;;;;;;5066241;28;20563;-67
2021/08/10 11:25:51;;;;;;;0.27;0.27;;;35.10;42.20;;;;;;5063087;28;20611;-67
2021/08/10 11:28:25;;;;;;;0.00;0.00;;;35.10;42.00;;;;;;5061283;28;20499;-68
2021/08/10 11:30:54;;;;;;;0.10;0.10;;;34.90;42.30;;;;;;5060272;28;20300;-67
2021/08/10 11:33:45;;;;;;;0.87;0.87;;;34.80;42.60;;;;;;5062439;28;20229;-67
2021/08/10 11:36:15;;;;;;;0.00;0.00;;;34.80;42.50;;;;;;5065387;28;20213;-67
2021/08/10 11:38:44;;;;;;;0.20;0.20;;;34.80;42.80;;;;;;5060244;28;20221;-67
2021/08/10 11:41:12;;;;;;;0.10;0.10;;;34.80;43.00;;;;;;5065058;28;20282;-67
2021/08/10 11:43:41;;;;;;;0.20;0.20;;;34.90;43.00;;;;;;5062660;28;20206;-67
2021/08/10 11:46:22;;;;;;;0.80;0.80;;;35.00;42.60;;;;;;5062962;28;20536;-67
2021/08/10 11:49:18;;;;;;;0.30;0.30;;;34.80;42.00;;;;;;5063105;28;20240;-67
2021/08/10 11:51:47;;;;;;;0.00;0.00;;;34.60;42.70;;;;;;5065832;28;20237;-67
2021/08/10 11:54:18;;;;;;;0.20;0.20;;;34.50;43.40;;;;;;5062882;28;20213;-67
2021/08/10 11:56:46;;;;;;;1.50;0.73;;;34.50;43.60;;;;;;5060687;28;20210;-67
2021/08/10 11:59:17;;;;;;;0.10;0.10;;;34.50;43.90;;;;;;5063816;28;20206;-67
2021/08/10 12:01:46;;;;;;;0.20;0.20;;;34.40;43.30;;;;;;5062943;28;20625;-68
2021/08/10 12:04:18;;;;;;;0.00;0.00;;;34.20;44.00;;;;;;5061440;28;20224;-67
2021/08/10 12:06:48;;;;;;;0.00;0.00;;;34.10;44.20;;;;;;5060221;28;20628;-67
2021/08/10 12:09:19;;;;;;;0.00;0.00;;;34.00;44.20;;;;;;5061393;28;20221;-67
2021/08/10 12:11:58;;;;;;;0.00;0.00;;;34.00;44.70;;;;;;5063045;28;20248;-67
2021/08/10 12:14:27;;;;;;;0.27;0.27;;;34.20;44.50;;;;;;5062427;28;20217;-67
2021/08/10 12:17:03;;;;;;;0.10;0.10;;;34.40;44.10;;;;;;5059989;28;20249;-67
2021/08/10 12:19:38;;;;;;;0.00;0.00;;;34.50;43.90;;;;;;5059925;28;20214;-67
2021/08/10 12:22:15;;;;;;;0.07;0.07;;;34.60;43.70;;;;;;5063729;28;20505;-67
2021/08/10 12:24:43;;;;;;;1.40;1.17;;;34.60;43.70;;;;;;5063997;28;20537;-67
2021/08/10 12:27:12;;;;;;;0.67;0.67;;;34.60;43.50;;;;;;5065202;28;20626;-67
2021/08/10 12:29:41;;;;;;;0.00;0.00;;;34.60;43.50;;;;;;5063570;28;20310;-67
2021/08/10 12:32:13;;;;;;;0.33;0.23;;;34.70;43.80;;;;;;5065061;28;20283;-67
2021/08/10 12:34:41;;;;;;;0.00;0.00;;;34.80;43.30;;;;;;5066444;28;20217;-67
2021/08/10 12:37:09;;;;;;;0.00;0.00;;;34.80;43.00;;;;;;5062392;28;20213;-67
2021/08/10 12:39:39;;;;;;;0.10;0.10;;;34.80;42.90;;;;;;5065296;28;20225;-67
2021/08/10 12:42:07;;;;;;;0.00;0.00;;;34.70;42.80;;;;;;5066045;28;20213;-67
2021/08/10 12:44:34;;;;;;;0.20;0.20;;;34.60;43.10;;;;;;5064785;28;20272;-67
2021/08/10 12:47:07;;;;;;;0.10;0.10;;;34.60;42.50;;;;;;5062311;28;20283;-67
2021/08/10 12:49:37;;;;;;;0.00;0.00;;;34.50;42.40;;;;;;5064026;28;20221;-67
2021/08/10 12:52:05;;;;;;;0.10;0.10;;;34.50;42.40;;;;;;5065824;28;20676;-67
2021/08/10 12:54:56;;;;;;;0.00;0.00;;;34.50;42.20;;;;;;5063671;28;20225;-67
2021/08/10 12:57:26;;;;;;;0.00;0.00;;;34.50;42.60;;;;;;5065833;28;20213;-66
2021/08/10 12:59:55;;;;;;;0.07;0.07;;;34.50;42.10;;;;;;5065886;28;20224;-66
2021/08/10 13:02:39;;;;;;;0.00;0.00;;;34.50;42.10;;;;;;5063868;28;20215;-66